createdAt,value
2022-09-28T00:01:58.000Z,54.13
2022-09-28T00:04:26.139Z,54.06
2022-09-28T00:06:56.033Z,54.21
2022-09-28T00:09:26.453Z,54.13
2022-09-28T00:11:56.305Z,54.23
2022-09-28T00:14:26.602Z,54.31
2022-09-28T00:16:55.035Z,54.44
2022-09-28T00:19:23.391Z,54.31
2022-09-28T00:21:52.543Z,54.32
2022-09-28T00:24:25.341Z,54.41
2022-09-28T00:27:02.336Z,54.48
2022-09-28T00:29:37.370Z,54.47
2022-09-28T00:32:13.419Z,54.47
2022-09-28T00:34:49.607Z,54.82
2022-09-28T00:37:20.243Z,54.90
2022-09-28T00:39:49.494Z,55.02
2022-09-28T00:42:22.222Z,54.94
2022-09-28T00:45:00.234Z,55.08
2022-09-28T00:47:54.488Z,55.11
2022-09-28T00:50:36.006Z,55.20
2022-09-28T00:53:24.552Z,55.18
2022-09-28T00:56:03.759Z,55.37
2022-09-28T00:58:40.330Z,55.46
2022-09-28T01:01:15.347Z,55.51
2022-09-28T01:03:49.253Z,55.62
2022-09-28T01:06:24.146Z,55.56
2022-09-28T01:08:56.608Z,55.73
2022-09-28T01:11:26.304Z,55.78
2022-09-28T01:14:00.502Z,55.76
2022-09-28T01:16:51.011Z,55.77
2022-09-28T01:19:57.260Z,55.81
2022-09-28T01:22:48.410Z,55.94
2022-09-28T01:26:06.920Z,55.81
2022-09-28T01:28:37.360Z,56.35
2022-09-28T01:31:16.282Z,56.49
2022-09-28T01:34:24.385Z,56.39
2022-09-28T01:36:58.439Z,56.43
2022-09-28T01:39:41.622Z,56.64
2022-09-28T01:42:23.919Z,56.77
2022-09-28T01:44:58.787Z,56.89
2022-09-28T01:47:33.998Z,56.98
2022-09-28T01:50:21.620Z,56.88
2022-09-28T01:53:13.104Z,56.85
2022-09-28T01:56:10.444Z,57.05
2022-09-28T01:59:00.829Z,57.13
2022-09-28T02:01:44.427Z,57.30
2022-09-28T02:04:23.913Z,57.37
2022-09-28T02:07:24.547Z,57.38
2022-09-28T02:10:00.976Z,57.56
2022-09-28T02:13:00.607Z,57.41
2022-09-28T02:15:52.686Z,57.55
2022-09-28T02:18:21.331Z,57.99
2022-09-28T02:21:09.353Z,57.78
2022-09-28T02:23:42.690Z,57.97
2022-09-28T02:26:16.396Z,57.97
2022-09-28T02:28:44.663Z,58.06
2022-09-28T02:31:15.125Z,58.04
2022-09-28T02:33:46.541Z,58.13
2022-09-28T02:36:17.883Z,58.27
2022-09-28T02:38:48.710Z,58.35
2022-09-28T02:41:59.523Z,58.03
2022-09-28T02:45:05.344Z,58.18
2022-09-28T02:48:31.448Z,58.15
2022-09-28T02:51:47.259Z,58.30
2022-09-28T02:54:54.174Z,58.22
2022-09-28T02:57:56.261Z,58.33
2022-09-28T03:00:25.338Z,58.59
2022-09-28T03:03:28.310Z,58.19
2022-09-28T03:06:15.241Z,58.36
2022-09-28T03:09:06.711Z,58.30
2022-09-28T03:12:00.356Z,58.28
2022-09-28T03:14:28.861Z,58.43
2022-09-28T03:16:58.716Z,58.50
2022-09-28T03:19:34.485Z,58.17
2022-09-28T03:22:03.254Z,58.53
2022-09-28T03:24:32.631Z,58.49
2022-09-28T03:27:00.551Z,58.47
2022-09-28T03:29:32.079Z,58.45
2022-09-28T03:32:04.466Z,58.58
2022-09-28T03:34:34.307Z,58.61
2022-09-28T03:37:03.692Z,58.44
2022-09-28T03:39:31.973Z,58.45
2022-09-28T03:42:03.435Z,58.66
2022-09-28T03:44:35.307Z,58.59
2022-09-28T03:47:03.906Z,58.56
2022-09-28T03:49:33.851Z,58.50
2022-09-28T03:52:03.329Z,58.36
2022-09-28T03:54:33.340Z,58.49
2022-09-28T03:57:02.229Z,58.44
2022-09-28T03:59:30.905Z,58.48
2022-09-28T04:01:59.731Z,58.53
2022-09-28T04:04:28.279Z,58.43
2022-09-28T04:06:56.700Z,58.39
2022-09-28T04:09:26.336Z,58.51
2022-09-28T04:12:03.960Z,58.44
2022-09-28T04:14:35.441Z,58.34
2022-09-28T04:17:07.677Z,58.47
2022-09-28T04:19:38.513Z,58.47
2022-09-28T04:22:19.973Z,58.47
2022-09-28T04:24:49.986Z,58.51
2022-09-28T04:27:37.916Z,58.60
2022-09-28T04:30:11.593Z,58.32
2022-09-28T04:32:43.098Z,58.41
2022-09-28T04:35:12.911Z,58.50
2022-09-28T04:37:43.643Z,58.46
2022-09-28T04:40:13.542Z,58.53
2022-09-28T04:42:53.075Z,58.22
2022-09-28T04:45:27.116Z,58.20
2022-09-28T04:48:00.298Z,58.38
2022-09-28T04:50:58.425Z,58.25
2022-09-28T04:53:30.027Z,58.25
2022-09-28T04:56:06.387Z,58.45
2022-09-28T04:58:38.187Z,58.32
2022-09-28T05:01:11.501Z,58.45
2022-09-28T05:03:58.282Z,58.29
2022-09-28T05:07:00.650Z,58.38
2022-09-28T05:09:33.936Z,58.39
2022-09-28T05:12:04.714Z,58.29
2022-09-28T05:14:33.219Z,58.21
2022-09-28T05:17:02.619Z,58.17
2022-09-28T05:19:39.486Z,58.10
2022-09-28T05:22:13.976Z,58.22
2022-09-28T05:24:48.146Z,58.19
2022-09-28T05:27:18.314Z,58.07
2022-09-28T05:30:00.857Z,58.11
2022-09-28T05:32:33.144Z,58.41
2022-09-28T05:35:28.289Z,58.20
2022-09-28T05:38:03.522Z,58.21
2022-09-28T05:40:34.929Z,58.29
2022-09-28T05:43:04.118Z,58.24
2022-09-28T05:45:34.567Z,58.37
2022-09-28T05:48:06.521Z,58.18
2022-09-28T05:50:34.812Z,58.37
2022-09-28T05:53:06.979Z,58.44
2022-09-28T05:55:42.539Z,58.46
2022-09-28T05:58:10.815Z,58.45
2022-09-28T06:00:38.767Z,58.55
2022-09-28T06:03:12.576Z,58.47
2022-09-28T06:05:43.638Z,58.41
2022-09-28T06:08:13.759Z,58.50
2022-09-28T06:10:48.241Z,58.58
2022-09-28T06:13:16.534Z,58.57
2022-09-28T06:15:48.747Z,58.59
2022-09-28T06:18:19.583Z,58.64
2022-09-28T06:21:16.282Z,58.82
2022-09-28T06:23:49.403Z,58.77
2022-09-28T06:26:20.253Z,58.68
2022-09-28T06:28:52.324Z,58.63
2022-09-28T06:31:24.142Z,58.72
2022-09-28T06:33:53.883Z,58.80
2022-09-28T06:36:24.506Z,58.62
2022-09-28T06:38:54.881Z,58.68
2022-09-28T06:41:25.859Z,58.90
2022-09-28T06:43:57.685Z,58.84
2022-09-28T06:46:44.793Z,58.82
2022-09-28T06:49:19.200Z,58.87
2022-09-28T06:52:07.571Z,59.22
2022-09-28T06:54:59.440Z,59.02
2022-09-28T06:57:40.477Z,59.12
2022-09-28T07:00:13.778Z,58.96
2022-09-28T07:02:44.891Z,58.99
2022-09-28T07:05:42.052Z,59.04
2022-09-28T07:08:31.574Z,58.95
2022-09-28T07:11:20.944Z,58.88
2022-09-28T07:14:17.106Z,58.76
2022-09-28T07:17:10.925Z,58.62
2022-09-28T07:19:41.600Z,58.71
2022-09-28T07:22:18.164Z,58.47
2022-09-28T07:24:49.271Z,58.17
2022-09-28T07:27:41.431Z,57.99
2022-09-28T07:30:35.305Z,57.92
2022-09-28T07:33:44.495Z,58.20
2022-09-28T07:37:02.843Z,57.77
2022-09-28T07:39:34.003Z,58.00
2022-09-28T07:42:05.699Z,58.08
2022-09-28T07:44:35.558Z,57.89
2022-09-28T07:47:04.057Z,57.83
2022-09-28T07:49:59.897Z,57.86
2022-09-28T07:52:47.378Z,57.88
2022-09-28T07:55:26.195Z,57.74
2022-09-28T07:58:18.722Z,57.43
2022-09-28T08:00:56.115Z,57.23
2022-09-28T08:03:25.979Z,57.00
2022-09-28T08:06:09.789Z,56.63
2022-09-28T08:08:44.191Z,56.65
2022-09-28T08:11:19.644Z,56.48
2022-09-28T08:14:19.846Z,56.49
2022-09-28T08:17:08.205Z,56.41
2022-09-28T08:20:01.270Z,56.35
2022-09-28T08:22:32.391Z,56.10
2022-09-28T08:25:03.845Z,55.95
2022-09-28T08:27:32.485Z,55.84
2022-09-28T08:30:00.717Z,55.61
2022-09-28T08:32:49.745Z,55.54
2022-09-28T08:35:46.128Z,55.49
2022-09-28T08:38:23.262Z,55.40
2022-09-28T08:41:30.532Z,55.38
2022-09-28T08:44:27.157Z,55.58
2022-09-28T08:48:15.355Z,55.23
2022-09-28T08:51:21.377Z,55.44
2022-09-28T08:54:59.770Z,55.32
2022-09-28T08:58:15.252Z,54.84
2022-09-28T09:00:52.097Z,54.54
2022-09-28T09:03:45.042Z,53.84
2022-09-28T09:06:52.794Z,53.74
2022-09-28T09:09:56.505Z,53.61
2022-09-28T09:12:43.755Z,53.48
2022-09-28T09:15:39.163Z,53.24
2022-09-28T09:18:43.423Z,53.44
2022-09-28T09:21:48.415Z,53.58
2022-09-28T09:24:28.040Z,53.44
2022-09-28T09:27:29.734Z,54.38
2022-09-28T09:30:19.154Z,54.05
2022-09-28T09:33:29.051Z,53.99
2022-09-28T09:37:20.894Z,53.91
2022-09-28T09:41:07.908Z,53.71
2022-09-28T09:44:50.342Z,53.36
2022-09-28T09:47:59.976Z,53.54
2022-09-28T09:50:40.505Z,53.04
2022-09-28T09:54:07.489Z,52.77
2022-09-28T09:56:40.337Z,52.33
2022-09-28T09:59:34.699Z,51.89
2022-09-28T10:02:28.392Z,51.70
2022-09-28T10:05:31.327Z,51.69
2022-09-28T10:08:16.873Z,51.84
2022-09-28T10:11:09.169Z,51.76
2022-09-28T10:13:45.753Z,51.77
2022-09-28T10:16:35.243Z,51.64
2022-09-28T10:19:08.218Z,51.42
2022-09-28T10:21:59.618Z,51.66
2022-09-28T10:24:49.198Z,51.51
2022-09-28T10:27:32.717Z,50.95
2022-09-28T10:30:03.720Z,50.79
2022-09-28T10:32:48.020Z,50.35
2022-09-28T10:35:19.603Z,50.48
2022-09-28T10:38:37.629Z,50.30
2022-09-28T10:41:15.609Z,50.33
2022-09-28T10:44:11.256Z,50.28
2022-09-28T10:47:13.919Z,50.07
2022-09-28T10:49:47.350Z,50.03
2022-09-28T10:52:46.274Z,49.90
2022-09-28T10:55:37.233Z,50.03
2022-09-28T10:58:32.075Z,49.69
2022-09-28T11:01:20.350Z,49.42
2022-09-28T11:04:07.586Z,49.13
2022-09-28T11:06:41.857Z,49.27
2022-09-28T11:09:41.639Z,48.86
2022-09-28T11:12:22.080Z,49.05
2022-09-28T11:15:02.130Z,48.95
2022-09-28T11:17:40.122Z,48.95
2022-09-28T11:20:33.020Z,49.14
2022-09-28T11:23:26.429Z,49.03
2022-09-28T11:26:07.553Z,49.01
2022-09-28T11:28:39.443Z,48.85
2022-09-28T11:31:15.734Z,48.95
2022-09-28T11:34:36.204Z,48.68
2022-09-28T11:37:50.490Z,48.98
2022-09-28T11:41:04.906Z,49.17
2022-09-28T11:44:08.794Z,48.94
2022-09-28T11:47:29.002Z,49.17
2022-09-28T11:50:36.247Z,48.88
2022-09-28T11:53:18.401Z,49.13
2022-09-28T11:56:39.699Z,48.51
2022-09-28T11:59:51.597Z,48.45
2022-09-28T12:02:59.039Z,48.15
2022-09-28T12:06:43.846Z,48.28
2022-09-28T12:09:58.495Z,48.22
2022-09-28T12:12:38.547Z,47.81
2022-09-28T12:16:17.447Z,47.45
2022-09-28T12:18:55.444Z,47.96
2022-09-28T12:21:53.496Z,47.77
2022-09-28T12:24:44.689Z,47.56
2022-09-28T12:27:43.304Z,47.84
2022-09-28T12:30:25.730Z,47.71
2022-09-28T12:33:13.547Z,47.44
2022-09-28T12:35:51.137Z,47.10
2022-09-28T12:39:08.417Z,46.37
2022-09-28T12:42:18.131Z,46.23
2022-09-28T12:45:09.459Z,46.47
2022-09-28T12:48:12.195Z,46.40
2022-09-28T12:51:41.293Z,46.11
2022-09-28T12:55:06.250Z,46.33
2022-09-28T12:58:22.954Z,46.33
2022-09-28T13:01:22.311Z,46.14
2022-09-28T13:04:12.788Z,45.82
2022-09-28T13:07:25.380Z,46.08
2022-09-28T13:10:05.754Z,47.00
2022-09-28T13:13:13.551Z,46.63
2022-09-28T13:16:01.909Z,46.23
2022-09-28T13:18:44.430Z,46.05
2022-09-28T13:21:31.143Z,45.40
2022-09-28T13:24:27.771Z,45.19
2022-09-28T13:27:00.612Z,45.28
2022-09-28T13:29:30.868Z,44.90
2022-09-28T13:32:21.076Z,45.21
2022-09-28T13:35:21.837Z,45.11
2022-09-28T13:38:33.347Z,45.13
2022-09-28T13:41:13.036Z,46.31
2022-09-28T13:43:51.021Z,46.00
2022-09-28T13:46:44.188Z,45.68
2022-09-28T13:49:42.953Z,45.60
2022-09-28T13:52:56.196Z,45.88
2022-09-28T13:55:57.334Z,45.49
2022-09-28T13:58:43.832Z,45.57
2022-09-28T14:01:32.628Z,45.14
2022-09-28T14:04:23.595Z,45.22
2022-09-28T14:07:35.316Z,45.30
2022-09-28T14:10:44.111Z,45.41
2022-09-28T14:13:33.999Z,45.60
2022-09-28T14:16:36.715Z,45.52
2022-09-28T14:19:36.179Z,45.10
2022-09-28T14:22:31.206Z,45.22
2022-09-28T14:25:27.747Z,44.98
2022-09-28T14:28:38.529Z,44.81
2022-09-28T14:31:27.634Z,44.55
2022-09-28T14:34:01.691Z,44.58
2022-09-28T14:37:01.590Z,44.15
2022-09-28T14:39:53.928Z,44.54
2022-09-28T14:42:25.762Z,44.81
2022-09-28T14:45:06.587Z,44.48
2022-09-28T14:47:43.112Z,44.08
2022-09-28T14:50:29.137Z,44.29
2022-09-28T14:53:13.689Z,44.44
2022-09-28T14:55:50.304Z,44.01
2022-09-28T14:58:30.196Z,43.83
2022-09-28T15:01:13.915Z,43.82
2022-09-28T15:03:47.733Z,44.00
2022-09-28T15:06:20.469Z,43.67
2022-09-28T15:08:52.677Z,43.71
2022-09-28T15:11:27.837Z,43.50
2022-09-28T15:14:08.395Z,43.42
2022-09-28T15:16:37.041Z,43.46
2022-09-28T15:19:42.901Z,43.41
2022-09-28T15:22:20.441Z,43.42
2022-09-28T15:25:02.449Z,43.38
2022-09-28T15:27:39.095Z,43.36
2022-09-28T15:30:32.287Z,43.55
2022-09-28T15:33:24.419Z,44.45
2022-09-28T15:36:05.994Z,44.05
2022-09-28T15:38:35.728Z,44.85
2022-09-28T15:41:07.490Z,44.30
2022-09-28T15:43:38.396Z,43.96
2022-09-28T15:46:19.401Z,43.50
2022-09-28T15:48:57.685Z,43.07
2022-09-28T15:51:28.462Z,43.30
2022-09-28T15:54:04.553Z,43.14
2022-09-28T15:56:50.242Z,42.86
2022-09-28T15:59:39.367Z,42.96
2022-09-28T16:02:22.672Z,43.23
2022-09-28T16:05:00.925Z,42.98
2022-09-28T16:07:41.695Z,42.69
2022-09-28T16:10:12.759Z,42.88
2022-09-28T16:12:58.875Z,42.83
2022-09-28T16:15:34.562Z,42.85
2022-09-28T16:18:18.225Z,42.87
2022-09-28T16:20:53.747Z,43.03
2022-09-28T16:23:35.184Z,43.16
2022-09-28T16:26:14.993Z,43.10
2022-09-28T16:28:46.370Z,43.32
2022-09-28T16:31:14.845Z,43.40
2022-09-28T16:33:56.780Z,43.33
2022-09-28T16:36:30.107Z,43.75
2022-09-28T16:39:02.085Z,44.02
2022-09-28T16:41:42.510Z,44.00
2022-09-28T16:44:28.874Z,43.97
2022-09-28T16:46:58.836Z,44.31
2022-09-28T16:49:30.825Z,44.35
2022-09-28T16:52:00.135Z,44.41
2022-09-28T16:54:48.830Z,44.48
2022-09-28T16:57:19.680Z,44.68
2022-09-28T16:59:50.061Z,45.13
2022-09-28T17:05:18.183Z,45.52
2022-09-28T17:08:12.449Z,45.49
2022-09-28T17:11:24.062Z,45.61
2022-09-28T17:13:59.487Z,45.87
2022-09-28T17:17:02.285Z,45.77
2022-09-28T17:19:29.013Z,45.89
2022-09-28T17:21:58.115Z,45.88
2022-09-28T17:24:26.655Z,45.79
2022-09-28T17:26:57.246Z,46.02
2022-09-28T17:29:25.850Z,46.04
2022-09-28T17:31:55.147Z,46.05
2022-09-28T17:34:24.669Z,46.00
2022-09-28T17:36:54.592Z,46.04
2022-09-28T17:39:25.435Z,45.97
2022-09-28T17:41:55.280Z,46.08
2022-09-28T17:44:24.515Z,45.87
2022-09-28T17:46:54.188Z,46.04
2022-09-28T17:49:23.715Z,46.01
2022-09-28T17:51:53.162Z,45.82
2022-09-28T17:54:23.476Z,45.90
2022-09-28T17:56:51.770Z,45.93
2022-09-28T17:59:20.992Z,45.93
2022-09-28T18:01:50.180Z,45.90
2022-09-28T18:04:47.098Z,45.92
2022-09-28T18:07:08.597Z,46.00
2022-09-28T18:09:37.518Z,45.91
2022-09-28T18:12:07.902Z,45.77
2022-09-28T18:14:36.827Z,45.74
2022-09-28T18:17:06.087Z,45.92
2022-09-28T18:19:38.067Z,45.74
2022-09-28T18:22:07.657Z,45.75
2022-09-28T18:24:37.735Z,45.78
2022-09-28T18:27:05.982Z,45.72
2022-09-28T18:29:34.161Z,45.84
2022-09-28T18:32:03.768Z,45.89
2022-09-28T18:34:39.340Z,45.67
2022-09-28T18:37:08.633Z,45.82
2022-09-28T18:39:37.582Z,46.04
2022-09-28T18:42:10.973Z,45.94
2022-09-28T18:44:39.995Z,46.15
2022-09-28T18:47:09.470Z,46.10
2022-09-28T18:49:38.410Z,46.03
2022-09-28T18:52:07.604Z,46.11
2022-09-28T18:54:37.357Z,46.13
2022-09-28T18:57:08.897Z,46.09
2022-09-28T18:59:37.030Z,46.45
2022-09-28T19:02:17.239Z,46.23
2022-09-28T19:04:50.011Z,46.32
2022-09-28T19:07:28.350Z,46.35
2022-09-28T19:09:56.874Z,46.48
2022-09-28T19:12:26.521Z,46.55
2022-09-28T19:14:56.133Z,46.53
2022-09-28T19:17:26.187Z,46.71
2022-09-28T19:19:58.281Z,46.76
2022-09-28T19:22:27.547Z,46.92
2022-09-28T19:24:58.022Z,46.89
2022-09-28T19:27:26.551Z,47.04
2022-09-28T19:29:57.405Z,47.20
2022-09-28T19:32:26.077Z,47.27
2022-09-28T19:34:55.514Z,47.52
2022-09-28T19:37:23.925Z,47.46
2022-09-28T19:39:52.219Z,47.87
2022-09-28T19:42:20.850Z,48.10
2022-09-28T19:44:51.470Z,48.21
2022-09-28T19:47:24.213Z,48.29
2022-09-28T19:49:53.927Z,48.43
2022-09-28T19:52:24.341Z,48.42
2022-09-28T19:55:00.350Z,48.70
2022-09-28T19:57:32.929Z,48.83
2022-09-28T20:00:06.397Z,48.85
2022-09-28T20:02:46.610Z,48.96
2022-09-28T20:05:15.726Z,49.26
2022-09-28T20:07:44.677Z,49.21
2022-09-28T20:10:17.504Z,49.37
2022-09-28T20:12:49.254Z,49.36
2022-09-28T20:15:25.534Z,49.57
2022-09-28T20:17:59.889Z,49.62
2022-09-28T20:20:33.316Z,49.85
2022-09-28T20:23:03.053Z,49.93
2022-09-28T20:25:35.633Z,49.88
2022-09-28T20:28:05.775Z,50.15
2022-09-28T20:30:35.405Z,50.09
2022-09-28T20:33:07.730Z,50.17
2022-09-28T20:35:36.713Z,50.13
2022-09-28T20:38:09.281Z,50.28
2022-09-28T20:40:40.412Z,50.27
2022-09-28T20:43:09.967Z,50.33
2022-09-28T20:45:40.421Z,50.51
2022-09-28T20:48:09.753Z,50.51
2022-09-28T20:50:38.436Z,50.50
2022-09-28T20:53:07.836Z,50.42
2022-09-28T20:55:38.163Z,50.58
2022-09-28T20:58:11.673Z,50.45
2022-09-28T22:11:06.882Z,51.72
2022-09-28T22:13:39.650Z,51.76
2022-09-28T22:16:11.377Z,51.64
2022-09-28T22:18:41.567Z,51.76
2022-09-28T22:21:19.842Z,51.95
2022-09-28T22:23:53.983Z,51.85
2022-09-28T22:26:27.430Z,51.91
2022-09-28T22:28:58.768Z,51.85
2022-09-28T22:31:33.957Z,51.86
2022-09-28T22:34:03.191Z,52.04
2022-09-28T22:36:31.663Z,52.00
2022-09-28T22:39:00.623Z,51.92
2022-09-28T22:41:30.225Z,51.93
2022-09-28T22:43:59.322Z,51.99
2022-09-28T22:46:32.138Z,51.77
2022-09-28T22:49:01.930Z,52.05
2022-09-28T22:51:32.071Z,52.06
2022-09-28T22:54:03.593Z,52.07
2022-09-28T22:56:35.991Z,52.11
2022-09-28T22:59:05.456Z,52.22
2022-09-28T23:01:40.350Z,51.93
2022-09-28T23:04:10.105Z,52.08
2022-09-28T23:06:38.880Z,52.23
2022-09-28T23:09:07.809Z,52.20
2022-09-28T23:11:39.363Z,52.29
2022-09-28T23:14:12.596Z,52.23
2022-09-28T23:16:41.311Z,52.22
2022-09-28T23:19:09.619Z,52.35
2022-09-28T23:21:38.502Z,52.17
2022-09-28T23:24:06.543Z,52.14
2022-09-28T23:26:37.016Z,52.10
2022-09-28T23:29:06.187Z,52.23
2022-09-28T23:31:34.551Z,52.15
2022-09-28T23:34:05.566Z,52.16
2022-09-28T23:36:34.115Z,52.15
2022-09-28T23:39:03.250Z,52.16
2022-09-28T23:41:31.348Z,52.36
2022-09-28T23:43:59.739Z,52.34
2022-09-28T23:46:27.878Z,52.17
2022-09-28T23:48:56.015Z,52.16
2022-09-28T23:51:24.294Z,52.17
2022-09-28T23:53:54.384Z,52.41
2022-09-28T23:56:22.698Z,52.19
2022-09-28T23:58:51.022Z,52.22
